Time;durP1;ratioP1;P1;durP2;ratioP2;P2;SDS_P1;SDS_P2;PMS_P1;PMS_P2;Temp;Humidity;BMP_temperature;BMP_pressure;BME280_temperature;BME280_humidity;BME280_pressure;Samples;Min_cycle;Max_cycle;Signal;HPM_P1;HPM_P2
2024/01/10 00:02:24;;;;;;;31.57;11.03;;;;;;;-12.43;74.09;102213.41;123169;1101;104270;-77
2024/01/10 00:04:55;;;;;;;26.53;9.67;;;;;;;-12.44;73.97;102213.18;123065;1102;104508;-77
2024/01/10 00:07:27;;;;;;;31.07;11.00;;;;;;;-12.46;73.62;102212.95;123109;1100;104268;-77
2024/01/10 00:09:59;;;;;;;27.53;9.63;;;;;;;-12.44;73.59;102223.30;123142;1102;104323;-78
2024/01/10 00:12:35;;;;;;;31.87;11.10;;;;;;;-12.45;74.11;102212.23;123417;1102;104377;-77
2024/01/10 00:15:09;;;;;;;27.70;9.97;;;;;;;-12.44;73.91;102209.03;123462;1102;104444;-79
2024/01/10 00:17:41;;;;;;;33.00;11.47;;;;;;;-12.42;74.21;102205.11;123479;1100;104268;-79
2024/01/10 00:20:13;;;;;;;26.53;9.77;;;;;;;-12.41;73.49;102208.59;123160;1102;104271;-78
2024/01/10 00:22:44;;;;;;;30.70;10.87;;;;;;;-12.43;73.53;102205.83;123052;1102;104277;-78
2024/01/10 00:25:17;;;;;;;28.12;9.60;;;;;;;-12.43;73.53;102199.82;123075;1102;104267;-78
2024/01/10 00:27:48;;;;;;;24.97;9.27;;;;;;;-12.44;73.45;102192.94;123089;1102;104239;-78
2024/01/10 00:30:19;;;;;;;30.73;9.77;;;;;;;-12.44;73.72;102182.83;123132;1102;104341;-78
2024/01/10 00:32:51;;;;;;;24.50;8.60;;;;;;;-12.45;73.36;102191.09;123075;1102;104283;-78
2024/01/10 00:35:22;;;;;;;29.43;9.80;;;;;;;-12.46;73.61;102185.12;122981;1102;104268;-78
2024/01/10 00:37:53;;;;;;;25.50;9.80;;;;;;;-12.49;74.20;102183.03;122995;1102;104304;-78
2024/01/10 00:40:24;;;;;;;24.00;9.23;;;;;;;-12.51;74.18;102179.36;123115;1102;104322;-79
2024/01/10 00:42:55;;;;;;;25.83;9.67;;;;;;;-12.55;73.47;102184.62;122958;1102;104332;-78
2024/01/10 00:45:26;;;;;;;30.57;10.03;;;;;;;-12.60;73.74;102185.53;123024;1099;104236;-78
2024/01/10 00:47:58;;;;;;;22.33;9.17;;;;;;;-12.64;73.37;102174.71;123208;1102;104313;-78
2024/01/10 00:50:29;;;;;;;31.50;9.23;;;;;;;-12.67;73.40;102183.68;123108;1100;104355;-78
2024/01/10 00:53:00;;;;;;;28.17;10.20;;;;;;;-12.69;73.69;102174.91;123074;1101;104268;-78
2024/01/10 00:55:31;;;;;;;27.60;10.97;;;;;;;-12.69;73.38;102174.91;123205;1102;104441;-78
2024/01/10 00:58:03;;;;;;;28.30;10.03;;;;;;;-12.71;73.32;102175.39;123062;1102;104392;-78
2024/01/10 01:00:34;;;;;;;28.93;10.00;;;;;;;-12.73;74.22;102166.63;123056;1102;104347;-78
2024/01/10 01:03:07;;;;;;;25.07;9.40;;;;;;;-12.75;73.43;102168.91;123099;1100;104248;-78
2024/01/10 01:05:38;;;;;;;26.25;10.23;;;;;;;-12.75;73.79;102158.80;123127;1100;104271;-78
2024/01/10 01:08:10;;;;;;;30.10;10.57;;;;;;;-12.74;73.49;102164.80;123080;1102;104304;-78
2024/01/10 01:10:41;;;;;;;27.23;9.73;;;;;;;-12.72;74.10;102156.75;123815;1102;104264;-78
2024/01/10 01:13:12;;;;;;;23.50;8.43;;;;;;;-12.71;73.47;102151.02;123371;1102;104236;-78
2024/01/10 01:15:44;;;;;;;30.93;10.60;;;;;;;-12.70;74.22;102152.87;123356;1102;104350;-78
2024/01/10 01:18:15;;;;;;;24.73;8.83;;;;;;;-12.70;74.54;102141.81;123172;1102;104371;-78
2024/01/10 01:20:48;;;;;;;27.77;9.67;;;;;;;-12.70;74.41;102136.75;123089;1101;104373;-78
2024/01/10 01:23:20;;;;;;;35.35;10.45;;;;;;;-12.70;74.15;102135.17;123132;1102;104280;-78
2024/01/10 01:25:51;;;;;;;29.70;10.50;;;;;;;-12.71;73.94;102127.34;123365;1099;104220;-78
2024/01/10 01:28:22;;;;;;;28.47;9.67;;;;;;;-12.70;73.55;102127.58;123413;1099;104166;-78
2024/01/10 01:30:53;;;;;;;26.00;9.13;;;;;;;-12.71;73.64;102122.30;123473;1099;104191;-78
2024/01/10 01:33:25;;;;;;;29.67;10.20;;;;;;;-12.72;74.09;102117.91;123389;1099;104341;-79
2024/01/10 01:35:56;;;;;;;32.50;10.65;;;;;;;-12.73;74.65;102113.53;123325;1098;104316;-79
2024/01/10 01:38:27;;;;;;;30.43;10.00;;;;;;;-12.73;73.80;102116.05;123636;1099;104351;-79
2024/01/10 01:40:58;;;;;;;29.93;11.57;;;;;;;-12.73;73.69;102116.05;123443;1099;104241;-79
2024/01/10 01:43:30;;;;;;;28.53;9.67;;;;;;;-12.73;74.38;102104.36;123412;1099;104236;-79
2024/01/10 01:46:01;;;;;;;26.57;8.87;;;;;;;-12.71;74.26;102100.45;123394;1099;104348;-79
2024/01/10 01:48:32;;;;;;;34.60;10.97;;;;;;;-12.72;73.61;102098.59;123361;1099;104239;-79
2024/01/10 01:51:06;;;;;;;24.67;9.93;;;;;;;-12.73;74.69;102105.94;123437;1099;104272;-77
2024/01/10 01:53:39;;;;;;;33.20;11.40;;;;;;;-12.77;74.08;102109.62;123382;1099;104341;-77
2024/01/10 01:56:11;;;;;;;28.00;9.83;;;;;;;-12.79;74.52;102097.42;123437;1099;104335;-77
2024/01/10 01:58:44;;;;;;;35.03;10.63;;;;;;;-12.82;74.63;102092.84;123402;1099;104734;-77
2024/01/10 02:01:15;;;;;;;29.27;10.30;;;;;;;-12.83;73.54;102090.98;123397;1099;104268;-77
2024/01/10 02:03:47;;;;;;;25.03;9.60;;;;;;;-12.81;74.23;102086.16;123419;1099;104377;-77
2024/01/10 02:06:18;;;;;;;26.40;9.37;;;;;;;-12.81;74.86;102076.96;123233;1099;104354;-76
2024/01/10 02:08:49;;;;;;;26.83;8.07;;;;;;;-12.78;74.05;102081.58;123397;1099;104750;-77
2024/01/10 02:11:21;;;;;;;28.97;10.03;;;;;;;-12.76;74.11;102076.08;123402;1099;104408;-77
2024/01/10 02:13:54;;;;;;;26.25;8.80;;;;;;;-12.74;74.69;102068.73;123432;1099;104285;-76
2024/01/10 02:16:26;;;;;;;22.73;7.97;;;;;;;-12.71;74.43;102062.52;123388;1099;104255;-77
2024/01/10 02:18:57;;;;;;;22.47;7.93;;;;;;;-12.69;74.56;102058.60;123381;1099;104287;-76
2024/01/10 02:21:28;;;;;;;33.63;10.83;;;;;;;-12.66;74.80;102051.48;123099;1100;104252;-76
2024/01/10 02:24:00;;;;;;;24.00;8.43;;;;;;;-12.61;74.54;102042.06;123383;1099;104271;-76
2024/01/10 02:26:31;;;;;;;31.67;11.03;;;;;;;-12.56;74.81;102050.34;123353;1099;104341;-76
2024/01/10 02:29:02;;;;;;;28.75;11.30;;;;;;;-12.52;74.50;102045.98;123440;1099;104265;-76
2024/01/10 02:31:33;;;;;;;27.87;8.67;;;;;;;-12.48;74.94;102047.36;123341;1099;104316;-77
2024/01/10 02:34:04;;;;;;;30.03;10.37;;;;;;;-12.45;74.40;102042.76;123426;1099;104257;-76
2024/01/10 02:36:36;;;;;;;28.83;9.67;;;;;;;-12.45;74.98;102037.70;123165;1099;104361;-77
2024/01/10 02:39:07;;;;;;;25.67;7.53;;;;;;;-12.44;74.32;102039.55;123366;1099;104267;-77
2024/01/10 02:41:38;;;;;;;27.13;10.17;;;;;;;-12.46;74.40;102038.41;123429;1099;104267;-77
2024/01/10 02:44:09;;;;;;;22.53;8.83;;;;;;;-12.48;74.50;102027.13;123397;1099;104268;-76
2024/01/10 02:46:40;;;;;;;25.50;9.25;;;;;;;-12.48;74.47;102024.59;123144;1099;104348;-77
2024/01/10 02:49:11;;;;;;;28.00;9.50;;;;;;;-12.50;74.91;102031.95;123373;1099;104725;-77
2024/01/10 02:51:42;;;;;;;26.07;9.80;;;;;;;-12.51;73.92;102037.72;123391;1099;104345;-76
2024/01/10 02:54:13;;;;;;;24.35;9.20;;;;;;;-12.54;74.23;102034.73;123171;1099;104386;-77
2024/01/10 02:56:44;;;;;;;24.77;7.97;;;;;;;-12.57;74.12;102035.84;123410;1099;104249;-76
2024/01/10 02:59:16;;;;;;;26.63;8.07;;;;;;;-12.60;74.25;102033.80;123393;1099;104705;-77
2024/01/10 03:01:47;;;;;;;23.53;7.80;;;;;;;-12.62;74.77;102039.30;123423;1099;104419;-77
2024/01/10 03:04:18;;;;;;;26.97;8.57;;;;;;;-12.65;74.31;102039.78;123080;1099;104267;-77
2024/01/10 03:06:49;;;;;;;28.30;9.70;;;;;;;-12.67;74.35;102031.97;123404;1098;104329;-77
2024/01/10 03:09:23;;;;;;;27.23;8.70;;;;;;;-12.67;73.82;102031.97;123349;1099;104290;-77
2024/01/10 03:11:54;;;;;;;25.10;8.83;;;;;;;-12.67;74.10;102031.02;123559;1099;104166;-77
2024/01/10 03:14:25;;;;;;;27.30;9.50;;;;;;;-12.68;74.40;102024.14;123336;1099;104433;-79
2024/01/10 03:16:56;;;;;;;25.20;8.73;;;;;;;-12.68;74.38;102020.00;123367;1099;104275;-77
2024/01/10 03:19:27;;;;;;;25.65;8.70;;;;;;;-12.69;74.24;102023.20;123415;1099;104332;-77
2024/01/10 03:21:58;;;;;;;23.60;7.57;;;;;;;-12.70;73.75;102015.38;123381;1099;104243;-77
2024/01/10 03:24:29;;;;;;;29.13;9.10;;;;;;;-12.72;74.42;102006.66;123157;1099;104261;-77
2024/01/10 03:27:00;;;;;;;25.90;8.27;;;;;;;-12.71;74.45;102004.36;123369;1099;105738;-77
2024/01/10 03:29:32;;;;;;;26.77;8.33;;;;;;;-12.72;74.71;101999.08;123073;1099;104294;-77
2024/01/10 03:32:03;;;;;;;24.07;8.53;;;;;;;-12.74;74.46;101998.84;123186;1099;104281;-77
2024/01/10 03:34:35;;;;;;;24.67;8.23;;;;;;;-12.76;74.66;101984.12;123357;1098;104301;-77
2024/01/10 03:37:06;;;;;;;32.37;9.43;;;;;;;-12.78;73.68;101978.83;123378;1099;104197;-77
2024/01/10 03:39:37;;;;;;;22.10;7.73;;;;;;;-12.79;74.24;101982.08;123485;1098;104399;-78
2024/01/10 03:42:08;;;;;;;25.33;8.43;;;;;;;-12.80;73.97;101982.75;123350;1099;104338;-77
2024/01/10 03:44:40;;;;;;;21.27;6.90;;;;;;;-12.78;74.47;101975.39;123120;1099;104261;-78
2024/01/10 03:47:11;;;;;;;23.70;7.63;;;;;;;-12.77;73.78;101975.63;123510;1099;104252;-77
2024/01/10 03:49:42;;;;;;;30.00;10.87;;;;;;;-12.74;73.94;101973.56;123378;1099;104216;-77
2024/01/10 03:52:13;;;;;;;26.73;8.60;;;;;;;-12.67;74.96;101971.28;123440;1098;104373;-78
2024/01/10 03:54:44;;;;;;;26.93;8.70;;;;;;;-12.64;74.17;101963.21;123394;1099;104303;-77
2024/01/10 03:57:15;;;;;;;25.20;8.83;;;;;;;-12.60;74.64;101968.05;123518;1099;104342;-78
2024/01/10 03:59:46;;;;;;;23.63;8.47;;;;;;;-12.61;74.32;101968.73;123368;1099;110231;-77
2024/01/10 04:02:17;;;;;;;23.30;6.87;;;;;;;-12.63;74.42;101974.23;123394;1099;104242;-78
2024/01/10 04:04:50;;;;;;;25.07;8.83;;;;;;;-12.64;75.00;101964.83;123413;1099;104427;-78
2024/01/10 04:07:21;;;;;;;27.10;9.20;;;;;;;-12.64;74.83;101962.30;123352;1099;104325;-78
2024/01/10 04:09:52;;;;;;;20.70;6.57;;;;;;;-12.62;74.17;101968.50;123359;1099;105510;-78
2024/01/10 04:12:23;;;;;;;26.47;9.73;;;;;;;-12.61;74.51;101957.70;123398;1099;104255;-78
2024/01/10 04:14:54;;;;;;;25.30;8.90;;;;;;;-12.57;74.48;101965.98;123445;1099;104271;-78
2024/01/10 04:17:25;;;;;;;29.73;10.33;;;;;;;-12.53;74.46;101960.67;123397;1099;104341;-78
2024/01/10 04:19:57;;;;;;;28.85;10.65;;;;;;;-12.47;74.46;101965.73;123362;1099;104386;-78
2024/01/10 04:22:28;;;;;;;28.70;10.73;;;;;;;-12.41;75.06;101961.59;123359;1099;104272;-78
2024/01/10 04:25:00;;;;;;;30.47;10.80;;;;;;;-12.37;74.64;101958.84;123387;1099;104309;-78
2024/01/10 04:27:32;;;;;;;27.25;10.35;;;;;;;-12.31;74.73;101967.34;123391;1099;104312;-78
2024/01/10 04:30:03;;;;;;;27.57;9.73;;;;;;;-12.27;74.66;101956.06;123499;1099;104370;-78
2024/01/10 04:32:34;;;;;;;30.17;10.07;;;;;;;-12.22;74.64;101956.74;123354;1099;104233;-78
2024/01/10 04:35:07;;;;;;;27.63;8.23;;;;;;;-12.19;74.68;101962.26;123346;1099;104319;-78
2024/01/10 04:37:38;;;;;;;26.97;9.40;;;;;;;-12.17;75.26;101955.80;123441;1099;104389;-77
2024/01/10 04:40:11;;;;;;;29.53;11.90;;;;;;;-12.15;74.91;101956.97;123371;1099;104369;-77
2024/01/10 04:42:42;;;;;;;30.80;10.40;;;;;;;-12.13;75.56;101955.58;123550;1099;104405;-78
2024/01/10 04:45:13;;;;;;;25.20;8.30;;;;;;;-12.13;74.96;101947.98;123397;1099;104268;-78
2024/01/10 04:47:46;;;;;;;31.57;11.37;;;;;;;-12.13;75.10;101956.48;123447;1099;104264;-78
2024/01/10 04:50:17;;;;;;;26.87;9.10;;;;;;;-12.13;75.77;101960.64;123412;1099;104725;-78
2024/01/10 04:52:50;;;;;;;24.77;9.60;;;;;;;-12.13;75.47;101955.58;123550;1099;104342;-78
2024/01/10 04:55:21;;;;;;;23.83;7.73;;;;;;;-12.11;75.67;101951.66;123488;1099;104428;-78
2024/01/10 04:57:52;;;;;;;22.23;7.03;;;;;;;-12.11;75.56;101950.03;123408;1099;104464;-78
2024/01/10 05:00:24;;;;;;;25.97;8.50;;;;;;;-12.09;75.52;101946.81;123518;1099;104269;-78
2024/01/10 05:02:55;;;;;;;24.73;9.07;;;;;;;-12.07;75.21;101950.48;123457;1099;104241;-78
2024/01/10 05:05:26;;;;;;;22.27;8.50;;;;;;;-12.05;75.36;101957.62;123414;1099;104273;-77
2024/01/10 05:07:57;;;;;;;25.83;8.87;;;;;;;-12.04;75.85;101955.99;123417;1098;104379;-78
2024/01/10 05:10:28;;;;;;;28.30;9.50;;;;;;;-12.02;75.44;101950.48;123330;1099;104306;-78
2024/01/10 05:13:00;;;;;;;22.20;7.43;;;;;;;-12.00;75.84;101943.11;123414;1099;104351;-78
2024/01/10 05:15:31;;;;;;;26.93;8.90;;;;;;;-12.02;75.26;101941.98;123419;1099;104293;-77
2024/01/10 05:18:02;;;;;;;22.93;8.40;;;;;;;-12.02;75.86;101942.88;123394;1099;104357;-77
2024/01/10 05:20:34;;;;;;;25.10;9.03;;;;;;;-12.01;75.91;101943.79;123316;1099;104264;-78
2024/01/10 05:23:05;;;;;;;29.13;8.87;;;;;;;-12.02;75.67;101937.83;123413;1099;104262;-78
2024/01/10 05:25:36;;;;;;;26.40;9.47;;;;;;;-12.01;75.86;101932.08;123427;1099;104261;-78
2024/01/10 05:28:08;;;;;;;24.30;9.37;;;;;;;-11.99;75.59;101944.95;123649;1099;104267;-78
2024/01/10 05:30:39;;;;;;;26.00;8.70;;;;;;;-12.00;75.65;101935.52;123903;1099;104370;-78
2024/01/10 05:33:10;;;;;;;26.27;8.50;;;;;;;-11.99;75.72;101939.90;123682;1099;104313;-78
2024/01/10 05:35:42;;;;;;;22.80;8.37;;;;;;;-12.01;75.88;101942.20;123501;1099;104239;-77
2024/01/10 05:38:13;;;;;;;31.87;10.20;;;;;;;-12.00;75.37;101944.02;123603;1099;104726;-78
2024/01/10 05:40:46;;;;;;;27.02;10.32;;;;;;;-12.01;75.44;101952.33;123668;1099;104249;-77
2024/01/10 05:43:17;;;;;;;29.07;10.47;;;;;;;-11.98;76.18;101940.12;123465;1099;104336;-78
2024/01/10 05:45:48;;;;;;;26.13;9.03;;;;;;;-11.92;76.26;101940.08;123604;1099;104425;-78
2024/01/10 05:48:19;;;;;;;22.30;7.77;;;;;;;-11.86;76.15;101934.98;123450;1099;104344;-77
2024/01/10 05:50:51;;;;;;;22.17;8.00;;;;;;;-11.80;75.73;101934.25;123481;1099;104194;-78
2024/01/10 05:53:23;;;;;;;24.60;9.63;;;;;;;-11.77;76.17;101927.10;123806;1099;104197;-78
2024/01/10 05:55:55;;;;;;;25.33;8.60;;;;;;;-11.72;75.89;101927.78;123472;1098;104271;-77
2024/01/10 05:58:26;;;;;;;27.30;9.10;;;;;;;-11.67;76.22;101936.98;123701;1098;104412;-78
2024/01/10 06:00:57;;;;;;;25.57;8.13;;;;;;;-11.61;75.71;101932.81;123385;1099;104364;-78
2024/01/10 06:03:28;;;;;;;25.00;7.63;;;;;;;-11.54;75.87;101941.27;124005;1099;104265;-78
2024/01/10 06:05:59;;;;;;;20.10;6.87;;;;;;;-11.47;75.94;101944.02;123743;1099;104717;-78
2024/01/10 06:08:31;;;;;;;25.10;7.13;;;;;;;-11.42;75.96;101938.93;124034;1099;104274;-78
2024/01/10 06:11:03;;;;;;;24.27;6.70;;;;;;;-11.35;75.96;101934.75;123539;1099;104348;-77
2024/01/10 06:13:34;;;;;;;22.77;7.27;;;;;;;-11.30;75.76;101937.23;123902;1099;104316;-78
2024/01/10 06:16:07;;;;;;;24.17;8.43;;;;;;;-11.27;75.94;101931.70;124490;1098;104162;-78
2024/01/10 06:18:38;;;;;;;22.82;7.97;;;;;;;-11.25;75.79;101932.83;123980;1099;104265;-79
2024/01/10 06:21:10;;;;;;;23.03;7.07;;;;;;;-11.21;76.06;101924.98;123728;1099;104306;-78
2024/01/10 06:23:45;;;;;;;25.53;8.50;;;;;;;-11.14;75.80;101926.77;123969;1099;104223;-79
2024/01/10 06:26:17;;;;;;;26.57;7.70;;;;;;;-11.07;75.98;101926.97;124333;1099;104163;-79
2024/01/10 06:28:48;;;;;;;21.47;7.03;;;;;;;-10.98;75.97;101929.88;124564;1099;104165;-79
2024/01/10 06:31:23;;;;;;;20.40;6.97;;;;;;;-10.88;76.03;101933.05;123949;1098;104262;-79
2024/01/10 06:33:56;;;;;;;17.30;5.97;;;;;;;-10.76;75.91;101924.66;124410;1099;104197;-78
2024/01/10 06:36:27;;;;;;;20.73;6.23;;;;;;;-10.62;75.71;101913.02;124259;1099;104422;-79
2024/01/10 06:38:58;;;;;;;21.20;6.93;;;;;;;-10.49;76.11;101912.40;124420;1099;104242;-78
2024/01/10 06:41:29;;;;;;;22.10;7.00;;;;;;;-10.35;75.97;101918.52;124158;1099;104268;-78
2024/01/10 06:44:03;;;;;;;20.73;7.13;;;;;;;-10.19;75.83;101919.94;124220;1099;102137;-79
2024/01/10 06:46:34;;;;;;;18.87;5.55;;;;;;;-9.98;75.68;101916.92;123812;1099;104370;-79
2024/01/10 06:49:07;;;;;;;24.77;7.63;;;;;;;-9.78;76.37;101906.08;124365;1099;104265;-79
2024/01/10 06:51:38;;;;;;;20.70;6.63;;;;;;;-9.59;75.74;101912.07;124233;1099;104171;-78
2024/01/10 06:54:09;;;;;;;20.17;7.07;;;;;;;-9.41;76.39;101906.03;124621;1098;104255;-79
2024/01/10 06:56:41;;;;;;;18.70;5.97;;;;;;;-9.27;75.15;101907.92;124215;1099;104265;-78
2024/01/10 06:59:12;;;;;;;23.53;7.27;;;;;;;-9.18;75.80;101906.62;124162;1099;104248;-79
2024/01/10 07:01:43;;;;;;;19.13;6.20;;;;;;;-9.10;75.76;101903.52;124129;1098;104274;-79
2024/01/10 07:04:16;;;;;;;19.43;6.40;;;;;;;-9.01;75.00;101896.20;124373;1099;104175;-79
2024/01/10 07:06:49;;;;;;;24.45;7.50;;;;;;;-8.93;75.04;101895.59;124319;1099;104169;-79
2024/01/10 07:09:21;;;;;;;17.50;6.93;;;;;;;-8.84;74.86;101895.02;124113;1099;104267;-79
2024/01/10 07:11:55;;;;;;;20.17;6.27;;;;;;;-8.72;74.22;101896.67;124460;1099;104354;-79
2024/01/10 07:14:26;;;;;;;21.65;7.00;;;;;;;-8.63;74.34;101895.36;124552;1099;104188;-79
2024/01/10 07:16:59;;;;;;;19.93;6.63;;;;;;;-8.54;73.27;101890.56;124286;1099;104312;-79
2024/01/10 07:19:31;;;;;;;22.47;7.33;;;;;;;-8.43;74.26;101889.45;125652;1098;104216;-80
2024/01/10 07:22:02;;;;;;;19.63;6.93;;;;;;;-8.34;74.51;101872.81;123884;1099;103086;-79
2024/01/10 07:24:38;;;;;;;17.97;6.07;;;;;;;-8.22;74.78;101884.61;124376;1099;104172;-79
2024/01/10 07:27:09;;;;;;;21.30;6.93;;;;;;;-8.11;75.06;101875.84;123957;1099;104408;-77
2024/01/10 07:29:41;;;;;;;15.80;5.53;;;;;;;-8.01;74.44;101876.34;124407;1099;104168;-76
2024/01/10 07:32:13;;;;;;;14.77;5.80;;;;;;;-7.92;73.78;101876.61;124226;1099;104371;-77
2024/01/10 07:34:44;;;;;;;18.83;5.83;;;;;;;-7.80;73.59;101872.21;123759;1099;104251;-77
2024/01/10 07:37:16;;;;;;;15.93;5.80;;;;;;;-7.68;74.86;101875.41;123696;1099;104354;-77
2024/01/10 07:39:51;;;;;;;16.17;4.83;;;;;;;-7.56;73.02;101869.36;124531;1099;104326;-77
2024/01/10 07:42:22;;;;;;;18.93;5.83;;;;;;;-7.49;72.45;101871.09;125584;1099;104188;-77
2024/01/10 07:44:54;;;;;;;17.83;6.13;;;;;;;-7.37;73.19;101871.73;124252;1099;104242;-77
2024/01/10 07:47:25;;;;;;;19.00;6.73;;;;;;;-7.28;74.13;101867.81;124402;1099;104166;-77
2024/01/10 07:49:58;;;;;;;19.50;5.80;;;;;;;-7.17;73.68;101857.33;124418;1099;104271;-77
2024/01/10 07:52:30;;;;;;;23.42;6.58;;;;;;;-7.09;72.83;101860.86;124195;1099;104197;-77
2024/01/10 07:55:04;;;;;;;18.97;6.53;;;;;;;-7.05;71.43;101865.64;124015;1098;104198;-76
2024/01/10 07:57:38;;;;;;;18.60;6.00;;;;;;;-7.02;72.18;101860.93;124130;1099;104245;-77
2024/01/10 08:00:13;;;;;;;17.95;6.35;;;;;;;-6.95;71.16;101854.95;123906;1099;104270;-76
2024/01/10 08:02:44;;;;;;;19.07;6.63;;;;;;;-6.89;72.49;101854.13;124176;1099;104316;-76
2024/01/10 08:05:15;;;;;;;17.53;6.40;;;;;;;-6.81;69.74;101862.71;124264;1099;104271;-78
2024/01/10 08:07:48;;;;;;;20.07;7.07;;;;;;;-6.76;71.20;101853.08;124316;1099;104175;-77
2024/01/10 08:10:22;;;;;;;18.80;6.93;;;;;;;-6.67;70.85;101855.89;124520;1099;104210;-77
2024/01/10 08:12:53;;;;;;;18.83;6.43;;;;;;;-6.60;71.93;101856.85;124361;1099;103499;-77
2024/01/10 08:15:25;;;;;;;19.10;6.80;;;;;;;-6.52;70.70;101848.50;124002;1099;101917;-76
2024/01/10 08:17:56;;;;;;;18.23;6.07;;;;;;;-6.45;69.76;101860.42;124000;1099;102845;-76
2024/01/10 08:20:27;;;;;;;15.07;6.00;;;;;;;-6.36;70.88;101863.19;124134;1099;104312;-77
2024/01/10 08:22:59;;;;;;;19.30;6.50;;;;;;;-6.28;71.42;101852.27;124270;1099;104235;-77
2024/01/10 08:25:31;;;;;;;22.40;6.97;;;;;;;-6.18;71.26;101850.14;123911;1099;104333;-77
2024/01/10 08:28:02;;;;;;;20.23;6.60;;;;;;;-6.08;69.79;101869.16;124432;1099;102751;-76
2024/01/10 08:30:33;;;;;;;15.23;5.73;;;;;;;-5.99;68.03;101854.97;124345;1099;104418;-77
2024/01/10 08:33:05;;;;;;;17.00;6.17;;;;;;;-5.97;67.97;101846.77;124372;1099;105549;-77
2024/01/10 08:35:38;;;;;;;21.40;6.10;;;;;;;-5.92;68.92;101854.03;124556;1099;104252;-77
2024/01/10 08:38:10;;;;;;;19.10;6.08;;;;;;;-5.84;68.89;101861.92;124050;1099;104261;-77
2024/01/10 08:40:41;;;;;;;17.13;6.20;;;;;;;-5.75;67.75;101850.98;124463;1099;104245;-77
2024/01/10 08:43:12;;;;;;;13.90;4.63;;;;;;;-5.70;66.99;101862.67;124445;1099;104220;-76
2024/01/10 08:46:07;;;;;;;17.93;5.80;;;;;;;-5.67;67.38;101851.20;124294;1099;104223;-78
2024/01/10 08:48:59;;;;;;;17.43;6.03;;;;;;;-5.58;67.27;101848.82;124227;1099;104171;-77
2024/01/10 08:51:30;;;;;;;14.40;5.60;;;;;;;-5.52;66.79;101849.56;124386;1099;104211;-77
2024/01/10 08:54:02;;;;;;;18.60;5.60;;;;;;;-5.49;65.98;101839.70;124380;1099;104236;-77
2024/01/10 08:56:34;;;;;;;19.83;6.03;;;;;;;-5.42;66.75;101839.72;124619;1099;104246;-77
2024/01/10 08:59:05;;;;;;;15.90;5.27;;;;;;;-5.33;67.20;101836.44;124027;1099;104156;-77
2024/01/10 09:01:38;;;;;;;18.00;6.30;;;;;;;-5.28;66.48;101822.57;124469;1098;104280;-77
2024/01/10 09:04:10;;;;;;;19.43;6.40;;;;;;;-5.22;67.90;101813.03;124038;1099;104193;-77
2024/01/10 09:06:41;;;;;;;14.87;5.13;;;;;;;-5.12;65.87;101813.41;124799;1099;104166;-76
2024/01/10 09:09:14;;;;;;;14.97;5.37;;;;;;;-5.02;66.30;101811.95;124821;1099;104855;-77
2024/01/10 09:11:45;;;;;;;18.30;5.23;;;;;;;-4.94;66.84;101811.20;124701;1099;104304;-78
2024/01/10 09:14:16;;;;;;;16.27;5.70;;;;;;;-4.88;67.52;101815.41;124438;1099;104156;-78
2024/01/10 09:16:47;;;;;;;15.43;5.97;;;;;;;-4.76;66.52;101818.48;124877;1098;102279;-77
2024/01/10 09:19:18;;;;;;;12.07;4.43;;;;;;;-4.67;65.36;101816.10;124538;1099;104345;-78
2024/01/10 09:21:50;;;;;;;16.27;5.30;;;;;;;-4.58;66.75;101819.74;124444;1099;103581;-77
2024/01/10 09:24:21;;;;;;;16.03;5.63;;;;;;;-4.51;65.28;101801.77;124467;1099;104350;-77
2024/01/10 09:26:53;;;;;;;17.60;7.10;;;;;;;-4.45;67.77;101809.27;124588;1099;104219;-77
2024/01/10 09:29:27;;;;;;;14.80;5.03;;;;;;;-4.36;66.55;101805.20;124457;1099;104165;-77
2024/01/10 09:32:00;;;;;;;18.13;6.00;;;;;;;-4.25;66.70;101797.86;124512;1099;104277;-77
2024/01/10 09:34:32;;;;;;;14.98;5.40;;;;;;;-4.16;68.14;101817.77;124520;1099;104089;-77
2024/01/10 09:37:05;;;;;;;13.90;4.83;;;;;;;-4.08;64.84;101815.15;124282;1099;104230;-77
2024/01/10 09:39:36;;;;;;;12.73;4.97;;;;;;;-4.02;65.96;101814.23;124150;1099;104274;-77
2024/01/10 09:42:07;;;;;;;16.43;5.77;;;;;;;-3.94;67.56;101806.47;124240;1099;104246;-77
2024/01/10 09:44:39;;;;;;;17.27;5.80;;;;;;;-3.89;67.24;101793.45;123967;1098;104354;-77
2024/01/10 09:47:12;;;;;;;16.73;5.30;;;;;;;-3.84;65.85;101793.97;124117;1099;104412;-78
2024/01/10 09:49:45;;;;;;;11.63;5.10;;;;;;;-3.80;64.86;101783.33;124008;1099;104319;-77
2024/01/10 09:52:24;;;;;;;16.40;5.35;;;;;;;-3.73;65.46;101790.96;124255;1099;104166;-77
2024/01/10 09:54:57;;;;;;;15.10;4.90;;;;;;;-3.66;66.66;101796.06;124085;1099;104238;-77
2024/01/10 09:57:28;;;;;;;16.53;5.50;;;;;;;-3.63;66.11;101770.75;124234;1099;104249;-77
2024/01/10 10:00:02;;;;;;;15.37;5.43;;;;;;;-3.55;67.30;101765.54;123928;1099;104290;-77
2024/01/10 10:02:39;;;;;;;17.33;5.97;;;;;;;-3.48;68.22;101763.83;124440;1099;104344;-77
2024/01/10 10:05:16;;;;;;;14.97;5.13;;;;;;;-3.42;67.07;101761.05;123989;1102;104255;-77
2024/01/10 10:07:49;;;;;;;17.07;5.50;;;;;;;-3.41;65.00;101749.13;125687;1099;101963;-77
2024/01/10 10:10:21;;;;;;;14.57;5.33;;;;;;;-3.42;66.72;101753.35;124322;1099;104201;-77
2024/01/10 10:12:53;;;;;;;17.53;4.97;;;;;;;-3.41;65.19;101738.85;124560;1099;104370;-77
2024/01/10 10:15:27;;;;;;;17.10;5.57;;;;;;;-3.39;67.44;101743.42;124346;1099;104166;-77
2024/01/10 10:17:58;;;;;;;17.97;5.23;;;;;;;-3.33;64.81;101738.08;124349;1099;104268;-77
2024/01/10 10:20:32;;;;;;;15.30;5.53;;;;;;;-3.29;66.99;101759.12;123971;1099;102110;-77
2024/01/10 10:23:06;;;;;;;11.93;4.77;;;;;;;-3.27;64.23;101729.38;124336;1099;104249;-78
2024/01/10 10:25:39;;;;;;;13.15;4.60;;;;;;;-3.27;63.08;101738.75;124155;1099;104162;-77
2024/01/10 10:28:11;;;;;;;14.40;4.67;;;;;;;-3.28;64.60;101731.78;124423;1099;104386;-77
2024/01/10 10:30:42;;;;;;;19.13;5.60;;;;;;;-3.26;65.12;101723.52;124591;1099;104155;-77
2024/01/10 10:33:13;;;;;;;16.17;5.47;;;;;;;-3.21;66.30;101720.52;124572;1099;104265;-77
2024/01/10 10:35:47;;;;;;;16.97;5.67;;;;;;;-3.18;65.75;101726.00;124750;1099;104062;-77
2024/01/10 10:38:23;;;;;;;17.23;5.75;;;;;;;-3.17;64.37;101725.27;123944;1102;104274;-77
2024/01/10 10:40:55;;;;;;;18.10;6.00;;;;;;;-3.17;63.86;101732.97;124122;1099;104469;-77
2024/01/10 10:43:26;;;;;;;17.00;4.90;;;;;;;-3.22;62.01;101719.62;124430;1099;102573;-78
2024/01/10 10:46:01;;;;;;;18.35;6.15;;;;;;;-3.23;61.99;101730.62;123940;1099;104730;-77
2024/01/10 10:48:35;;;;;;;14.43;4.93;;;;;;;-3.28;61.51;101719.84;124911;1099;102417;-78
2024/01/10 10:51:12;;;;;;;17.77;5.03;;;;;;;-3.29;61.32;101712.91;125433;1098;104366;-77
2024/01/10 10:53:45;;;;;;;17.57;5.00;;;;;;;-3.28;62.10;101704.45;124585;1098;104347;-77
2024/01/10 10:56:23;;;;;;;15.95;5.50;;;;;;;-3.28;61.62;101694.17;124633;1099;104157;-77
2024/01/10 10:58:57;;;;;;;15.97;4.90;;;;;;;-3.27;61.43;101687.41;124561;1099;104112;-76
2024/01/10 11:01:30;;;;;;;14.85;5.08;;;;;;;-3.28;61.37;101699.31;124665;1099;104245;-77
2024/01/10 11:04:03;;;;;;;17.53;5.40;;;;;;;-3.25;63.54;101691.95;124357;1099;104162;-77
2024/01/10 11:06:35;;;;;;;20.57;5.77;;;;;;;-3.21;64.35;101692.28;124223;1099;104248;-77
2024/01/10 11:09:11;;;;;;;15.93;5.30;;;;;;;-3.22;61.67;101700.75;124384;1099;104296;-78
2024/01/10 11:12:04;;;;;;;15.63;5.27;;;;;;;-3.22;63.24;101690.48;124420;1098;104262;-77
2024/01/10 11:14:52;;;;;;;16.65;5.30;;;;;;;-3.23;63.36;101694.68;124674;1099;104575;-77
2024/01/10 11:17:58;;;;;;;18.83;6.00;;;;;;;-3.22;63.57;101681.11;125130;1099;102166;-76
2024/01/10 11:20:54;;;;;;;19.55;6.10;;;;;;;-3.18;63.17;101684.91;125006;1099;103659;-77